Time;durP1;ratioP1;P1;durP2;ratioP2;P2;SDS_P1;SDS_P2;PMS_P1;PMS_P2;Temp;Humidity;BMP_temperature;BMP_pressure;BME280_temperature;BME280_humidity;BME280_pressure;Samples;Min_cycle;Max_cycle;Signal;HPM_P1;HPM_P2
2023/12/01 00:00:08;;;;;;;33.65;12.98;;;0.00;99.90;;;;;;5019648;28;20049;-61
2023/12/01 00:02:33;;;;;;;37.42;13.18;;;0.10;99.90;;;;;;5019798;28;20091;-61
2023/12/01 00:04:59;;;;;;;39.42;13.82;;;0.10;99.90;;;;;;5019209;28;20183;-61
2023/12/01 00:07:25;;;;;;;31.67;12.70;;;0.00;99.90;;;;;;5019745;28;20046;-61
2023/12/01 00:09:52;;;;;;;37.75;14.63;;;0.00;99.90;;;;;;5018969;28;20050;-61
2023/12/01 00:12:17;;;;;;;35.60;12.90;;;0.00;99.90;;;;;;5019235;28;20445;-60
2023/12/01 00:14:43;;;;;;;36.13;14.35;;;0.00;99.90;;;;;;5019458;28;20084;-61
2023/12/01 00:17:09;;;;;;;32.90;13.05;;;0.00;99.90;;;;;;5019060;28;20096;-61
2023/12/01 00:19:34;;;;;;;38.90;14.00;;;0.00;99.90;;;;;;5019618;28;20108;-61
2023/12/01 00:22:00;;;;;;;38.67;14.70;;;0.00;99.90;;;;;;5019126;28;20078;-61
2023/12/01 00:24:26;;;;;;;32.05;13.05;;;0.00;99.90;;;;;;5019570;28;20105;-61
2023/12/01 00:26:51;;;;;;;32.58;13.15;;;-0.10;99.90;;;;;;5018558;28;20046;-61
2023/12/01 00:29:17;;;;;;;35.75;13.27;;;0.00;99.90;;;;;;5019479;28;20421;-61
2023/12/01 00:31:43;;;;;;;32.42;13.27;;;0.00;99.90;;;;;;5018958;28;20498;-61
2023/12/01 00:34:08;;;;;;;30.92;11.23;;;0.00;99.90;;;;;;5019279;28;20097;-61
2023/12/01 00:36:34;;;;;;;25.70;11.63;;;-0.10;99.90;;;;;;5019437;28;20054;-61
2023/12/01 00:39:00;;;;;;;28.48;11.50;;;-0.10;99.90;;;;;;5018980;28;20057;-60
2023/12/01 00:41:25;;;;;;;23.67;10.27;;;-0.10;99.90;;;;;;5019148;28;20129;-61
2023/12/01 00:43:51;;;;;;;29.30;11.75;;;-0.10;99.90;;;;;;5018558;28;20042;-61
2023/12/01 00:46:17;;;;;;;29.35;12.48;;;0.00;99.90;;;;;;5019064;28;20045;-61
2023/12/01 00:48:43;;;;;;;28.40;12.98;;;-0.10;99.90;;;;;;5018391;28;20042;-61
2023/12/01 00:51:16;;;;;;;29.95;12.00;;;-0.10;99.90;;;;;;5018774;28;20058;-61
2023/12/01 00:53:43;;;;;;;27.77;12.48;;;-0.20;99.90;;;;;;5015193;28;20117;-61
2023/12/01 00:56:13;;;;;;;30.63;13.20;;;-0.10;99.90;;;;;;4998903;28;20465;-62
2023/12/01 00:58:39;;;;;;;32.13;12.02;;;-0.20;99.90;;;;;;4999390;28;20046;-61
2023/12/01 01:01:06;;;;;;;29.95;12.27;;;-0.20;99.90;;;;;;4998596;28;20116;-61
2023/12/01 01:03:35;;;;;;;27.75;12.23;;;-0.20;99.90;;;;;;4999037;28;20042;-61
2023/12/01 01:06:01;;;;;;;28.95;11.98;;;-0.30;99.90;;;;;;4998684;28;20534;-58
2023/12/01 01:08:30;;;;;;;28.92;11.60;;;-0.20;99.90;;;;;;4998654;28;20062;-61
2023/12/01 01:10:56;;;;;;;30.40;11.73;;;-0.30;99.90;;;;;;4999453;28;20074;-61
2023/12/01 01:13:25;;;;;;;27.63;12.25;;;-0.40;99.90;;;;;;4998559;28;20044;-61
2023/12/01 01:15:50;;;;;;;29.75;12.48;;;-0.50;99.90;;;;;;4999196;28;20046;-61
2023/12/01 01:18:16;;;;;;;26.20;11.02;;;-0.40;99.90;;;;;;4980947;28;20145;-61
2023/12/01 01:20:42;;;;;;;29.92;12.20;;;-0.40;99.90;;;;;;4999034;28;20065;-61
2023/12/01 01:23:07;;;;;;;24.55;10.70;;;-0.40;99.90;;;;;;4998622;28;20078;-61
2023/12/01 01:25:33;;;;;;;29.63;14.07;;;-0.50;99.90;;;;;;4998686;28;20049;-61
2023/12/01 01:27:59;;;;;;;29.95;12.45;;;-0.40;99.90;;;;;;4998922;28;20125;-60
2023/12/01 01:30:25;;;;;;;26.77;11.93;;;-0.40;99.90;;;;;;4998658;28;20093;-61
2023/12/01 01:32:51;;;;;;;27.80;11.52;;;-0.30;99.90;;;;;;4999160;28;20134;-61
2023/12/01 01:35:17;;;;;;;25.15;11.60;;;-0.30;99.90;;;;;;4998582;28;20474;-61
2023/12/01 01:37:42;;;;;;;31.35;11.95;;;-0.30;99.90;;;;;;4998950;28;20067;-61
2023/12/01 01:40:12;;;;;;;28.70;11.82;;;-0.40;99.90;;;;;;4999997;28;20034;-61
2023/12/01 01:42:38;;;;;;;29.95;11.55;;;-0.40;99.90;;;;;;5002629;28;20049;-61
2023/12/01 01:45:04;;;;;;;31.48;12.73;;;-0.40;99.90;;;;;;5002689;28;20394;-61
2023/12/01 01:47:32;;;;;;;26.08;11.02;;;-0.40;99.90;;;;;;5001978;28;20054;-60
2023/12/01 01:49:58;;;;;;;32.53;13.35;;;-0.40;99.90;;;;;;5002434;28;20070;-61
2023/12/01 01:52:25;;;;;;;31.55;13.10;;;-0.40;99.90;;;;;;5001511;28;20054;-61
2023/12/01 01:54:50;;;;;;;27.60;11.85;;;-0.20;99.90;;;;;;5015733;28;20046;-61
2023/12/01 01:57:17;;;;;;;26.75;11.85;;;-0.60;99.90;;;;;;5021808;28;20042;-61
2023/12/01 01:59:43;;;;;;;31.08;13.77;;;-0.50;99.90;;;;;;5022050;28;20034;-61
2023/12/01 02:02:09;;;;;;;28.85;12.05;;;-0.50;99.90;;;;;;5021537;28;20528;-61
2023/12/01 02:04:35;;;;;;;31.30;12.50;;;-0.60;99.90;;;;;;5021575;28;20046;-61
2023/12/01 02:07:01;;;;;;;28.83;11.77;;;-0.70;99.90;;;;;;5021726;28;20332;-61
2023/12/01 02:09:27;;;;;;;30.55;13.57;;;-0.60;99.90;;;;;;5003464;28;20061;-61
2023/12/01 02:11:53;;;;;;;31.23;12.77;;;-0.70;99.90;;;;;;5022091;28;20076;-61
2023/12/01 02:14:19;;;;;;;29.58;12.23;;;-0.60;99.90;;;;;;5021325;28;20539;-61
2023/12/01 02:16:47;;;;;;;35.10;15.18;;;-0.60;99.90;;;;;;5021517;28;20125;-61
2023/12/01 02:19:13;;;;;;;29.55;12.80;;;-0.60;99.90;;;;;;5021481;28;20065;-61
2023/12/01 02:21:46;;;;;;;30.58;12.77;;;-0.60;99.90;;;;;;5021291;28;20079;-61
2023/12/01 02:24:12;;;;;;;34.70;13.00;;;-0.70;99.90;;;;;;5021793;28;20069;-61
2023/12/01 02:26:38;;;;;;;33.35;13.63;;;-0.70;99.90;;;;;;5020946;28;20093;-61
2023/12/01 02:29:05;;;;;;;35.47;13.95;;;-0.70;99.90;;;;;;5004001;28;20125;-61
2023/12/01 02:31:31;;;;;;;33.95;12.73;;;-0.70;99.90;;;;;;5021162;28;20050;-61
2023/12/01 02:33:57;;;;;;;34.67;14.15;;;-0.60;99.90;;;;;;5021474;28;20046;-61
2023/12/01 02:36:22;;;;;;;34.17;13.82;;;-0.60;99.90;;;;;;5021379;28;20096;-61
2023/12/01 02:38:48;;;;;;;34.88;14.13;;;-0.70;99.90;;;;;;5021013;28;20049;-61
2023/12/01 02:41:15;;;;;;;34.60;14.10;;;-0.70;99.90;;;;;;5021267;28;20038;-61
2023/12/01 02:43:41;;;;;;;36.45;14.48;;;-0.60;99.90;;;;;;5003192;28;20053;-61
2023/12/01 02:46:07;;;;;;;40.50;15.77;;;-0.70;99.90;;;;;;5021348;28;20057;-61
2023/12/01 02:48:32;;;;;;;37.95;14.85;;;-0.70;99.90;;;;;;5020439;28;20469;-61
2023/12/01 02:50:58;;;;;;;33.40;12.90;;;-0.70;99.90;;;;;;5020178;28;20061;-61
2023/12/01 02:53:24;;;;;;;38.28;13.73;;;-0.80;99.90;;;;;;5002938;28;20053;-61
2023/12/01 02:55:50;;;;;;;37.78;13.57;;;-0.80;99.90;;;;;;5020761;28;20051;-61
2023/12/01 02:58:15;;;;;;;34.33;12.95;;;-1.00;99.90;;;;;;5021167;28;20050;-61
2023/12/01 03:00:44;;;;;;;32.75;13.10;;;-0.90;99.90;;;;;;5020317;28;20081;-61
2023/12/01 03:03:10;;;;;;;37.97;13.60;;;-0.90;99.90;;;;;;5021019;28;20527;-61
2023/12/01 03:05:36;;;;;;;34.28;13.75;;;-1.00;99.90;;;;;;5020123;28;20034;-61
2023/12/01 03:08:01;;;;;;;36.30;13.75;;;-1.10;99.90;;;;;;5020652;28;20042;-61
2023/12/01 03:10:27;;;;;;;37.20;14.63;;;-1.10;99.90;;;;;;5020724;28;20041;-61
2023/12/01 03:12:53;;;;;;;34.22;12.52;;;-0.90;99.90;;;;;;5020461;28;20134;-61
2023/12/01 03:15:19;;;;;;;33.42;12.15;;;-1.30;99.90;;;;;;5020438;28;20060;-61
2023/12/01 03:17:46;;;;;;;35.50;12.43;;;-1.20;99.90;;;;;;5019821;28;20547;-61
2023/12/01 03:20:14;;;;;;;38.92;15.07;;;-1.20;99.90;;;;;;5020615;28;20045;-61
2023/12/01 03:22:45;;;;;;;35.33;13.23;;;-1.40;99.90;;;;;;5019824;28;20513;-61
2023/12/01 03:25:11;;;;;;;35.30;13.65;;;-1.30;99.90;;;;;;5020348;28;20049;-61
2023/12/01 03:27:45;;;;;;;36.45;13.02;;;-1.50;99.90;;;;;;5020240;28;20171;-61
2023/12/01 03:30:20;;;;;;;34.05;12.55;;;-1.40;99.90;;;;;;5019861;28;20073;-61
2023/12/01 03:32:46;;;;;;;32.95;12.77;;;-1.50;99.90;;;;;;5020515;28;20070;-62
2023/12/01 03:35:13;;;;;;;34.17;12.85;;;-1.60;99.90;;;;;;5001724;28;20076;-61
2023/12/01 03:37:38;;;;;;;38.58;13.57;;;-1.60;99.90;;;;;;5020364;28;20531;-61
2023/12/01 03:40:12;;;;;;;33.90;13.57;;;-1.60;99.90;;;;;;5019461;28;20069;-60
2023/12/01 03:42:42;;;;;;;36.10;13.43;;;-1.60;99.90;;;;;;5019815;28;20136;-61
2023/12/01 03:45:10;;;;;;;31.77;12.05;;;-1.60;99.90;;;;;;5020181;28;20045;-61
2023/12/01 03:47:37;;;;;;;38.95;13.20;;;-1.70;99.90;;;;;;5019214;28;20052;-61
2023/12/01 03:50:03;;;;;;;35.00;12.85;;;-1.70;99.90;;;;;;5002555;28;20088;-61
2023/12/01 03:52:30;;;;;;;33.55;12.60;;;-1.70;99.90;;;;;;5019336;28;20050;-61
2023/12/01 03:54:58;;;;;;;38.42;13.32;;;-1.80;99.90;;;;;;5006013;28;20073;-62
2023/12/01 03:57:27;;;;;;;34.20;12.23;;;-1.80;99.90;;;;;;4999965;28;20061;-61
2023/12/01 03:59:54;;;;;;;39.15;13.43;;;-1.80;99.90;;;;;;4999820;28;20054;-61
2023/12/01 04:02:21;;;;;;;32.63;12.52;;;-1.80;99.90;;;;;;4982379;28;20050;-61
2023/12/01 04:04:48;;;;;;;35.75;13.43;;;-1.80;99.90;;;;;;4999512;28;20055;-61
2023/12/01 04:07:13;;;;;;;32.55;12.60;;;-1.80;99.90;;;;;;4982893;28;20053;-61
2023/12/01 04:09:39;;;;;;;39.28;13.68;;;-1.80;99.90;;;;;;4999192;28;20125;-61
2023/12/01 04:12:05;;;;;;;34.35;12.68;;;-1.90;99.90;;;;;;4982281;28;20082;-61
2023/12/01 04:14:31;;;;;;;34.55;11.93;;;-1.90;99.90;;;;;;4999619;28;20130;-60
2023/12/01 04:16:56;;;;;;;38.63;13.50;;;-1.90;99.90;;;;;;4999604;28;20042;-61
2023/12/01 04:19:23;;;;;;;35.70;13.20;;;-1.80;99.90;;;;;;4999910;28;20054;-61
2023/12/01 04:21:49;;;;;;;35.00;12.80;;;-1.90;99.90;;;;;;4999208;28;20093;-61
2023/12/01 04:24:15;;;;;;;34.85;13.23;;;-2.00;99.90;;;;;;4982304;28;20046;-61
2023/12/01 04:26:40;;;;;;;33.88;12.68;;;-2.00;99.90;;;;;;4998920;28;20042;-60
2023/12/01 04:29:06;;;;;;;40.72;14.82;;;-2.00;99.90;;;;;;4999764;28;20046;-61
2023/12/01 04:31:32;;;;;;;36.05;13.70;;;-2.10;99.90;;;;;;4999447;28;20049;-61
2023/12/01 04:33:57;;;;;;;34.28;13.82;;;-2.10;99.90;;;;;;4999534;28;20038;-61
2023/12/01 04:36:23;;;;;;;41.17;14.40;;;-2.10;99.90;;;;;;4999510;28;20058;-62
2023/12/01 04:38:48;;;;;;;35.50;12.90;;;-2.20;99.90;;;;;;4999329;28;20088;-61
2023/12/01 04:41:14;;;;;;;37.22;13.30;;;-2.20;99.90;;;;;;4999677;28;20109;-59
2023/12/01 04:43:40;;;;;;;36.83;12.38;;;-2.20;99.90;;;;;;4998941;28;20057;-59
2023/12/01 04:46:06;;;;;;;34.45;14.00;;;-2.20;99.90;;;;;;4999467;28;20219;-59
2023/12/01 04:48:32;;;;;;;38.50;13.50;;;-2.20;99.90;;;;;;4998770;28;20046;-59
2023/12/01 04:50:58;;;;;;;36.72;13.02;;;-2.20;99.90;;;;;;4999372;28;20057;-59
2023/12/01 04:53:23;;;;;;;42.25;14.27;;;-2.20;99.90;;;;;;5000562;28;20046;-58
2023/12/01 04:55:49;;;;;;;32.45;11.52;;;-2.20;99.90;;;;;;5018884;28;20105;-59
2023/12/01 04:58:15;;;;;;;36.78;14.27;;;-2.30;99.90;;;;;;5019290;28;20045;-61
2023/12/01 05:00:41;;;;;;;37.75;13.15;;;-2.30;99.90;;;;;;5017942;28;20096;-60
2023/12/01 05:03:08;;;;;;;36.00;13.38;;;-2.30;99.90;;;;;;5019251;28;20496;-60
2023/12/01 05:05:35;;;;;;;37.63;13.70;;;-2.30;99.90;;;;;;5018229;28;20090;-59
2023/12/01 05:08:04;;;;;;;36.10;12.18;;;-2.30;99.90;;;;;;5018978;28;20049;-60
2023/12/01 05:10:32;;;;;;;38.28;12.80;;;-2.30;99.90;;;;;;5018570;28;20080;-60
2023/12/01 05:13:01;;;;;;;35.60;12.45;;;-2.30;99.90;;;;;;5018725;28;20038;-60
2023/12/01 05:15:31;;;;;;;36.80;14.35;;;-2.40;99.90;;;;;;5020910;28;20132;-60
2023/12/01 05:18:07;;;;;;;34.08;12.23;;;-2.40;99.90;;;;;;5022041;28;20533;-61
2023/12/01 05:20:33;;;;;;;32.75;13.05;;;-2.50;99.90;;;;;;5022733;28;20101;-60
2023/12/01 05:23:05;;;;;;;35.08;12.52;;;-2.50;99.90;;;;;;5022750;28;20117;-61
2023/12/01 05:25:32;;;;;;;36.95;12.98;;;-2.50;99.90;;;;;;5022452;28;20078;-60
2023/12/01 05:28:05;;;;;;;35.55;13.77;;;-2.50;99.90;;;;;;5022569;28;20060;-61
2023/12/01 05:30:33;;;;;;;34.22;12.88;;;-2.60;99.90;;;;;;5022010;28;20045;-61
2023/12/01 05:32:59;;;;;;;38.80;13.25;;;-2.50;99.90;;;;;;5022688;28;20121;-61
2023/12/01 05:35:25;;;;;;;35.15;13.35;;;-2.60;99.90;;;;;;5021976;28;20042;-60
2023/12/01 05:37:53;;;;;;;35.25;13.13;;;-2.60;99.90;;;;;;5022251;28;20494;-60
2023/12/01 05:40:35;;;;;;;34.05;13.05;;;-2.50;99.90;;;;;;5022066;28;20038;-60
2023/12/01 05:43:01;;;;;;;;;;;-2.50;99.90;;;;;;5022685;28;20041;-61
2023/12/01 05:45:28;;;;;;;31.40;11.93;;;-2.50;99.90;;;;;;5004482;28;19921;-60
2023/12/01 05:47:55;;;;;;;32.85;12.50;;;-2.60;99.90;;;;;;5020916;28;20120;-60
2023/12/01 05:50:23;;;;;;;33.78;14.50;;;-2.60;99.90;;;;;;5004337;28;20104;-61
2023/12/01 05:52:51;;;;;;;35.72;12.68;;;-2.70;99.90;;;;;;5021691;28;20112;-61
2023/12/01 05:55:21;;;;;;;32.80;11.85;;;-2.70;99.90;;;;;;5022101;28;20072;-61
2023/12/01 05:57:58;;;;;;;35.72;12.82;;;-2.60;99.90;;;;;;5022260;28;20515;-60
2023/12/01 06:00:31;;;;;;;35.72;12.70;;;-2.50;99.90;;;;;;5021509;28;20049;-61
2023/12/01 06:03:03;;;;;;;36.30;12.45;;;-2.60;99.90;;;;;;5022265;28;20104;-60
2023/12/01 06:05:29;;;;;;;37.88;13.95;;;-2.70;99.90;;;;;;5021299;28;20054;-60
2023/12/01 06:07:57;;;;;;;38.17;14.52;;;-2.70;99.90;;;;;;5021790;28;20054;-61
2023/12/01 06:10:23;;;;;;;29.15;12.75;;;-2.60;99.90;;;;;;5021576;28;20590;-60
2023/12/01 06:12:49;;;;;;;34.30;12.45;;;-2.70;99.90;;;;;;5021317;28;20042;-60
2023/12/01 06:15:17;;;;;;;40.42;14.98;;;-2.80;99.90;;;;;;5022013;28;20603;-60
2023/12/01 06:17:44;;;;;;;31.50;12.70;;;-2.80;99.90;;;;;;5021220;28;20426;-60
2023/12/01 06:20:19;;;;;;;32.50;13.25;;;-2.70;99.90;;;;;;5022140;28;20560;-61
2023/12/01 06:22:53;;;;;;;37.15;13.00;;;-2.70;99.90;;;;;;5021215;28;20061;-60
2023/12/01 06:25:29;;;;;;;29.73;11.68;;;-2.70;99.90;;;;;;5021234;28;20562;-61
2023/12/01 06:27:56;;;;;;;31.63;12.10;;;-2.60;99.90;;;;;;5021587;28;20041;-60
2023/12/01 06:30:27;;;;;;;29.95;11.85;;;-2.70;99.90;;;;;;5003386;28;20406;-60
2023/12/01 06:32:53;;;;;;;32.25;11.18;;;-2.60;99.90;;;;;;5021796;28;20042;-60
2023/12/01 06:35:21;;;;;;;29.35;10.85;;;-2.70;99.90;;;;;;5003009;28;20053;-60
2023/12/01 06:37:47;;;;;;;31.20;11.43;;;-2.70;99.90;;;;;;5021271;28;20052;-60
2023/12/01 06:40:15;;;;;;;28.63;11.00;;;-2.80;99.90;;;;;;5017577;28;20111;-60
2023/12/01 06:42:43;;;;;;;30.95;11.43;;;-2.80;99.90;;;;;;5017361;28;20050;-60
2023/12/01 06:45:10;;;;;;;33.10;13.13;;;-2.80;99.90;;;;;;5017333;28;20057;-60
2023/12/01 06:47:37;;;;;;;29.92;12.07;;;-2.80;99.90;;;;;;5016661;28;20113;-60
2023/12/01 06:50:03;;;;;;;29.77;10.88;;;-2.80;99.90;;;;;;4999688;28;20065;-59
2023/12/01 06:52:29;;;;;;;29.00;11.57;;;-2.80;99.90;;;;;;5016262;28;20493;-61
2023/12/01 06:54:54;;;;;;;32.25;11.75;;;-2.80;99.90;;;;;;5003661;28;20054;-60
2023/12/01 06:57:20;;;;;;;35.25;13.13;;;-2.90;99.90;;;;;;4997420;28;20054;-60
2023/12/01 06:59:46;;;;;;;32.55;12.75;;;-2.90;99.90;;;;;;4997267;28;20093;-59
2023/12/01 07:02:17;;;;;;;31.42;12.63;;;-2.90;99.90;;;;;;4997776;28;20054;-60
2023/12/01 07:04:44;;;;;;;31.25;12.45;;;-2.80;99.90;;;;;;4979809;28;20050;-60
2023/12/01 07:07:12;;;;;;;32.72;11.80;;;-2.90;99.90;;;;;;4997790;28;20042;-59
2023/12/01 07:09:43;;;;;;;32.45;11.77;;;-2.90;99.90;;;;;;4996497;28;20097;-60
2023/12/01 07:12:09;;;;;;;31.02;11.40;;;-3.00;99.90;;;;;;4997139;28;20057;-59
2023/12/01 07:14:36;;;;;;;32.45;11.55;;;-2.90;99.90;;;;;;4997123;28;20058;-60
2023/12/01 07:17:05;;;;;;;34.22;13.07;;;-3.00;99.90;;;;;;4996111;28;20082;-60
2023/12/01 07:19:32;;;;;;;40.30;13.40;;;-2.90;99.90;;;;;;4997101;28;20054;-59
2023/12/01 07:21:59;;;;;;;37.75;12.63;;;-2.90;99.90;;;;;;4995607;28;20053;-60
2023/12/01 07:24:24;;;;;;;30.85;12.52;;;-2.90;99.90;;;;;;4996973;28;20061;-60
2023/12/01 07:26:51;;;;;;;35.33;12.73;;;-2.80;99.90;;;;;;4998601;28;20133;-60
2023/12/01 07:29:18;;;;;;;35.88;13.55;;;-2.80;99.90;;;;;;5005630;28;20074;-60
2023/12/01 07:31:44;;;;;;;36.00;13.65;;;-2.80;99.90;;;;;;4970635;28;20058;-60
2023/12/01 07:34:11;;;;;;;38.85;15.32;;;-2.70;99.90;;;;;;4978485;28;20148;-60
2023/12/01 07:36:37;;;;;;;35.35;14.18;;;-2.70;99.90;;;;;;4996959;28;20050;-59
2023/12/01 07:39:03;;;;;;;40.00;16.13;;;-2.70;99.90;;;;;;4994739;28;20038;-59
2023/12/01 07:41:29;;;;;;;40.53;15.45;;;-2.70;99.90;;;;;;4997350;28;20110;-59
2023/12/01 07:43:55;;;;;;;42.65;17.30;;;-2.70;99.90;;;;;;4978387;28;20133;-60
2023/12/01 07:46:21;;;;;;;39.53;14.35;;;-2.70;99.90;;;;;;4978694;28;20046;-60
2023/12/01 07:48:47;;;;;;;38.58;13.85;;;-2.70;99.90;;;;;;4996290;28;20050;-58
2023/12/01 07:51:12;;;;;;;38.92;14.55;;;-2.70;99.90;;;;;;4996085;28;20060;-59
2023/12/01 07:53:38;;;;;;;35.38;13.50;;;-2.70;99.90;;;;;;5015116;28;20516;-60
2023/12/01 07:56:04;;;;;;;35.80;12.75;;;-2.70;99.90;;;;;;5015684;28;20081;-60
2023/12/01 07:58:30;;;;;;;34.58;13.25;;;-2.70;99.90;;;;;;5016232;28;20507;-59
2023/12/01 08:00:57;;;;;;;31.40;12.18;;;-2.80;99.90;;;;;;5015923;28;20081;-58
2023/12/01 08:03:23;;;;;;;36.60;13.60;;;-2.80;99.90;;;;;;5016478;28;20061;-59
2023/12/01 08:05:49;;;;;;;42.65;14.40;;;-2.80;99.90;;;;;;4998949;28;20057;-59
2023/12/01 08:08:14;;;;;;;36.08;12.65;;;-2.80;99.90;;;;;;4998814;28;20042;-59
2023/12/01 08:10:41;;;;;;;32.05;12.80;;;-2.80;99.90;;;;;;5016572;28;20057;-59
2023/12/01 08:13:08;;;;;;;40.65;13.85;;;-2.70;99.90;;;;;;5015800;28;20056;-60
2023/12/01 08:15:33;;;;;;;38.15;13.55;;;-2.70;99.90;;;;;;5015295;28;20493;-60
2023/12/01 08:18:00;;;;;;;36.88;13.13;;;-2.70;99.90;;;;;;5015005;28;20088;-60
2023/12/01 08:20:28;;;;;;;35.65;12.50;;;-2.60;99.90;;;;;;5015556;28;20049;-60
2023/12/01 08:22:54;;;;;;;31.80;13.10;;;-2.70;99.90;;;;;;4997242;28;20459;-59
2023/12/01 08:25:22;;;;;;;40.40;13.85;;;-2.60;99.90;;;;;;5014728;28;20084;-58
2023/12/01 08:27:47;;;;;;;36.08;13.85;;;-2.60;99.90;;;;;;5015164;28;20505;-59
2023/12/01 08:30:13;;;;;;;40.65;14.65;;;-2.50;99.90;;;;;;5014639;28;20076;-60
2023/12/01 08:32:39;;;;;;;36.50;14.18;;;-2.40;99.90;;;;;;4998154;28;20591;-60
2023/12/01 08:35:05;;;;;;;36.88;13.50;;;-2.30;99.90;;;;;;5014700;28;20547;-60
2023/12/01 08:37:31;;;;;;;38.67;14.13;;;-2.30;99.90;;;;;;5009069;28;20072;-59
2023/12/01 08:39:57;;;;;;;34.22;13.38;;;-2.30;99.90;;;;;;4987368;28;20049;-60
2023/12/01 08:42:23;;;;;;;38.53;13.77;;;-2.30;99.90;;;;;;4985614;28;20057;-60
2023/12/01 08:44:48;;;;;;;34.88;14.07;;;-2.20;99.90;;;;;;4984282;28;20111;-59
2023/12/01 08:47:17;;;;;;;35.25;14.18;;;-2.20;99.90;;;;;;4965030;28;20085;-59
2023/12/01 08:49:43;;;;;;;35.38;13.27;;;-2.20;99.90;;;;;;4984923;28;20070;-60
2023/12/01 08:52:09;;;;;;;36.38;14.32;;;-2.20;99.90;;;;;;4999471;28;20053;-60
2023/12/01 08:54:34;;;;;;;32.55;13.00;;;-2.10;99.90;;;;;;5009205;28;20095;-60
2023/12/01 08:57:00;;;;;;;29.23;11.60;;;-2.00;99.90;;;;;;5005876;28;20085;-60
2023/12/01 08:59:27;;;;;;;28.73;12.02;;;-2.00;99.90;;;;;;4995267;28;20049;-59
2023/12/01 09:01:53;;;;;;;29.13;11.00;;;-2.00;99.90;;;;;;4995417;28;20108;-61
2023/12/01 09:04:21;;;;;;;28.30;10.27;;;-2.00;99.90;;;;;;4997015;28;20041;-60
2023/12/01 09:06:46;;;;;;;29.40;11.27;;;-1.90;99.90;;;;;;5002791;28;20073;-61
2023/12/01 09:09:12;;;;;;;29.35;11.45;;;-1.90;99.90;;;;;;4998990;28;20072;-60
2023/12/01 09:11:38;;;;;;;31.27;11.63;;;-1.90;99.90;;;;;;5004566;28;20568;-61
2023/12/01 09:14:03;;;;;;;28.95;12.00;;;-1.80;99.90;;;;;;5003357;28;20038;-61
2023/12/01 09:16:29;;;;;;;30.50;12.73;;;-1.80;99.90;;;;;;5010126;28;20562;-60
2023/12/01 09:18:55;;;;;;;29.98;10.70;;;-1.80;99.90;;;;;;5014915;28;20528;-59
2023/12/01 09:21:21;;;;;;;27.95;11.77;;;-1.80;99.90;;;;;;5014723;28;20465;-59
2023/12/01 09:23:46;;;;;;;29.08;10.75;;;-1.70;99.90;;;;;;5014901;28;20134;-59
2023/12/01 09:26:18;;;;;;;28.60;12.15;;;-1.70;99.90;;;;;;5014305;28;20609;-59
2023/12/01 09:28:45;;;;;;;28.98;11.18;;;-1.70;99.90;;;;;;5014981;28;20082;-59
2023/12/01 09:31:12;;;;;;;28.65;12.50;;;-1.70;99.90;;;;;;5014416;28;20048;-59
2023/12/01 09:33:38;;;;;;;28.95;12.38;;;-1.80;99.90;;;;;;5014703;28;20046;-60
2023/12/01 09:36:04;;;;;;;29.98;12.13;;;-1.80;99.90;;;;;;5014461;28;20049;-59
2023/12/01 09:38:31;;;;;;;30.50;11.60;;;-1.90;99.90;;;;;;4993927;28;20081;-59
2023/12/01 09:40:56;;;;;;;26.83;11.68;;;-1.70;99.90;;;;;;4999979;28;20531;-59
2023/12/01 09:43:23;;;;;;;28.48;11.68;;;-1.70;99.90;;;;;;5012184;28;20106;-59
2023/12/01 09:45:52;;;;;;;28.88;12.45;;;-1.60;99.90;;;;;;5014439;28;20105;-59
2023/12/01 09:48:19;;;;;;;29.92;12.18;;;-1.50;99.90;;;;;;5013912;28;20053;-59
2023/12/01 09:50:49;;;;;;;27.67;10.98;;;-1.60;99.90;;;;;;5014431;28;20064;-59
2023/12/01 09:53:16;;;;;;;31.63;12.60;;;-1.50;99.90;;;;;;5013527;28;20525;-59
2023/12/01 09:55:42;;;;;;;33.15;12.80;;;-1.40;99.90;;;;;;4976915;28;20050;-59
2023/12/01 09:58:09;;;;;;;25.52;11.82;;;-1.40;99.90;;;;;;4994934;28;20092;-59
2023/12/01 10:00:35;;;;;;;29.08;11.73;;;-1.30;99.90;;;;;;4996829;28;20038;-59
2023/12/01 10:03:04;;;;;;;28.95;11.30;;;-1.30;99.90;;;;;;5001065;28;20073;-59
2023/12/01 10:05:32;;;;;;;28.63;12.45;;;-1.20;99.90;;;;;;5001194;28;20049;-59
2023/12/01 10:07:58;;;;;;;29.60;12.00;;;-1.10;99.90;;;;;;5002224;28;20052;-60
2023/12/01 10:10:26;;;;;;;29.55;11.95;;;-1.10;99.90;;;;;;5001828;28;20046;-59
2023/12/01 10:13:07;;;;;;;28.80;12.88;;;-1.10;99.90;;;;;;5001905;28;20074;-59
2023/12/01 10:15:37;;;;;;;34.25;13.13;;;-1.10;99.90;;;;;;5001997;28;20093;-60
2023/12/01 10:18:19;;;;;;;30.90;13.70;;;-1.10;99.90;;;;;;4983646;28;20046;-59
2023/12/01 10:21:07;;;;;;;34.35;13.38;;;-1.00;99.90;;;;;;5001706;28;20050;-59
2023/12/01 10:23:33;;;;;;;27.85;11.50;;;-0.90;99.90;;;;;;5002038;28;20074;-60
2023/12/01 10:26:03;;;;;;;30.27;11.93;;;-0.80;99.90;;;;;;5001119;28;20491;-59
2023/12/01 10:28:43;;;;;;;26.60;12.15;;;-0.80;99.90;;;;;;4984591;28;20566;-59
2023/12/01 10:31:09;;;;;;;28.83;11.73;;;-0.80;99.90;;;;;;5000877;28;20115;-59
2023/12/01 10:33:36;;;;;;;27.77;11.82;;;-0.80;99.90;;;;;;4988281;28;20046;-58
2023/12/01 10:36:05;;;;;;;28.23;11.35;;;-0.80;99.90;;;;;;4970073;28;20050;-58
2023/12/01 10:38:33;;;;;;;26.25;11.13;;;-0.80;99.90;;;;;;4989311;28;20144;-58
2023/12/01 10:41:00;;;;;;;26.92;12.23;;;-0.70;99.90;;;;;;4955112;28;20045;-60
2023/12/01 10:43:27;;;;;;;26.17;11.43;;;-0.70;99.90;;;;;;4989084;28;20038;-58
2023/12/01 10:45:53;;;;;;;25.50;11.02;;;-0.70;99.90;;;;;;4989463;28;20098;-58
2023/12/01 10:48:21;;;;;;;24.65;11.40;;;-0.60;99.90;;;;;;4989409;28;20123;-58
2023/12/01 10:50:48;;;;;;;27.13;11.50;;;-0.60;99.90;;;;;;4971984;28;20556;-58
2023/12/01 10:53:15;;;;;;;26.75;11.55;;;-0.60;99.90;;;;;;4989540;28;20050;-58
2023/12/01 10:55:48;;;;;;;26.95;11.68;;;-0.60;99.90;;;;;;4989386;28;20034;-58
2023/12/01 10:58:22;;;;;;;27.23;11.52;;;-0.70;99.90;;;;;;4988386;28;20714;-58
2023/12/01 11:00:52;;;;;;;23.80;10.80;;;-0.60;99.90;;;;;;4988390;28;20042;-59
2023/12/01 11:03:23;;;;;;;27.13;11.60;;;-0.60;99.90;;;;;;4989604;28;20047;-59
2023/12/01 11:06:01;;;;;;;30.83;11.57;;;-0.50;99.90;;;;;;4988786;28;20054;-59
2023/12/01 11:08:30;;;;;;;28.67;12.32;;;-0.40;99.90;;;;;;4988189;28;20046;-58
2023/12/01 11:10:56;;;;;;;26.10;11.35;;;-0.40;99.90;;;;;;4988630;28;20176;-58
2023/12/01 11:14:08;;;;;;;25.30;11.63;;;-0.30;99.90;;;;;;4987145;28;20065;-58
2023/12/01 11:16:34;;;;;;;25.85;11.73;;;-0.30;99.90;;;;;;4982245;28;20058;-58
2023/12/01 11:19:00;;;;;;;26.35;11.85;;;-0.30;99.90;;;;;;4987442;28;20057;-58
2023/12/01 11:21:26;;;;;;;26.35;11.98;;;-0.30;99.90;;;;;;4987938;28;20141;-59
2023/12/01 11:23:51;;;;;;;29.83;13.48;;;-0.20;99.90;;;;;;4986289;28;20043;-58
2023/12/01 11:26:17;;;;;;;25.88;11.60;;;-0.30;99.90;;;;;;4969407;28;20034;-59
2023/12/01 11:28:46;;;;;;;24.70;11.43;;;-0.30;99.90;;;;;;4987544;28;20087;-58
2023/12/01 11:33:53;;;;;;;27.40;11.02;;;-0.10;99.90;;;;;;4987288;28;20054;-58
2023/12/01 11:36:21;;;;;;;26.83;11.75;;;-0.10;99.90;;;;;;4988023;28;20034;-58
2023/12/01 11:39:14;;;;;;;27.27;11.43;;;-0.10;99.90;;;;;;4987750;28;20096;-58
2023/12/01 11:41:49;;;;;;;27.48;11.15;;;0.00;99.90;;;;;;4987977;28;20058;-58
2023/12/01 11:44:16;;;;;;;26.65;10.75;;;0.00;99.90;;;;;;4988395;28;20148;-59
2023/12/01 11:46:43;;;;;;;24.33;11.05;;;0.00;99.90;;;;;;4969686;28;20516;-58
2023/12/01 11:49:14;;;;;;;24.38;10.63;;;0.10;99.90;;;;;;4970444;28;20069;-58
2023/12/01 11:51:43;;;;;;;27.45;11.55;;;0.00;99.90;;;;;;4986565;28;20090;-59
2023/12/01 11:54:11;;;;;;;24.63;11.52;;;-0.10;99.90;;;;;;4985492;28;20054;-58
2023/12/01 11:56:37;;;;;;;27.35;10.93;;;-0.10;99.90;;;;;;4986215;28;20162;-59
2023/12/01 11:59:02;;;;;;;26.13;11.25;;;-0.10;99.90;;;;;;4970475;28;20129;-59
2023/12/01 12:01:31;;;;;;;23.95;11.93;;;-0.20;99.90;;;;;;4987100;28;20056;-59
2023/12/01 12:03:58;;;;;;;25.92;11.52;;;-0.30;99.90;;;;;;4987449;28;20050;-60
2023/12/01 12:06:25;;;;;;;26.20;11.07;;;-0.30;99.90;;;;;;4987453;28;20498;-59
2023/12/01 12:08:53;;;;;;;27.52;11.52;;;-0.20;99.90;;;;;;4986785;28;20038;-59
2023/12/01 12:11:20;;;;;;;26.42;11.63;;;-0.20;99.90;;;;;;4986701;28;20241;-59
2023/12/01 12:13:58;;;;;;;25.88;12.20;;;-0.30;99.90;;;;;;4986492;28;20057;-59
2023/12/01 12:16:24;;;;;;;25.65;11.38;;;-0.30;99.90;;;;;;4987731;28;20042;-59
2023/12/01 12:18:50;;;;;;;25.42;11.32;;;-0.30;99.90;;;;;;4986706;28;20535;-59
2023/12/01 12:21:16;;;;;;;30.27;11.82;;;-0.20;99.90;;;;;;4987939;28;20062;-59
2023/12/01 12:23:42;;;;;;;25.70;11.88;;;-0.30;99.90;;;;;;4988319;28;20076;-59
2023/12/01 12:26:18;;;;;;;27.52;11.52;;;-0.30;99.90;;;;;;4987155;28;20038;-59
2023/12/01 12:28:47;;;;;;;30.67;14.20;;;-0.30;99.90;;;;;;4987300;28;20053;-60
2023/12/01 12:31:14;;;;;;;27.67;12.10;;;-0.20;99.90;;;;;;4987504;28;20077;-59